Time;durP1;ratioP1;P1;durP2;ratioP2;P2;SDS_P1;SDS_P2;PMS_P1;PMS_P2;Temp;Humidity;BMP_temperature;BMP_pressure;BME280_temperature;BME280_humidity;BME280_pressure;Samples;Min_cycle;Max_cycle;Signal;HPM_P1;HPM_P2
2023/10/09 00:01:53;;;;;;;2.70;0.68;;;;;;;12.83;75.37;101297.91;5067243;28;20162;-79
2023/10/09 00:04:22;;;;;;;1.02;0.65;;;;;;;12.82;75.32;101290.91;5070906;28;20162;-78
2023/10/09 00:06:54;;;;;;;2.30;0.80;;;;;;;12.83;75.73;101292.66;5071640;28;20047;-79
2023/10/09 00:09:31;;;;;;;1.20;0.47;;;;;;;12.87;75.71;101285.63;5073574;28;20071;-78
2023/10/09 00:12:01;;;;;;;2.45;0.65;;;;;;;12.84;75.96;101272.50;5073185;28;20047;-80
2023/10/09 00:14:33;;;;;;;3.22;1.35;;;;;;;12.83;76.50;101266.38;5076001;28;20043;-78
2023/10/09 00:17:17;;;;;;;1.33;0.80;;;;;;;12.85;76.71;101258.47;5070451;28;20062;-78
2023/10/09 00:19:47;;;;;;;1.08;0.70;;;;;;;12.84;76.44;101255.00;5071108;28;20036;-77
2023/10/09 00:22:25;;;;;;;1.00;0.80;;;;;;;12.86;76.88;101257.59;5071174;28;20040;-79
2023/10/09 00:27:36;;;;;;;0.80;0.60;;;;;;;12.72;77.71;101232.31;5076220;28;20044;-80
2023/10/09 00:30:06;;;;;;;1.92;1.45;;;;;;;12.72;78.21;101234.94;5070514;28;20118;-78
2023/10/09 00:32:33;;;;;;;2.17;0.88;;;;;;;12.76;78.21;101227.88;5071752;28;20035;-78
2023/10/09 00:35:36;;;;;;;3.10;0.60;;;;;;;12.85;77.67;101226.94;5056105;28;20501;-79
2023/10/09 00:37:56;;;;;;;1.27;1.00;;;;;;;12.88;77.83;101219.91;5074073;28;20078;-80
2023/10/09 00:40:28;;;;;;;1.52;0.90;;;;;;;12.86;77.64;101205.91;5091757;28;20457;-77
2023/10/09 00:42:55;;;;;;;1.70;1.02;;;;;;;12.91;77.80;101212.00;5077271;28;20050;-76
2023/10/09 00:45:28;;;;;;;2.30;1.05;;;;;;;12.88;78.17;101203.25;5091259;28;20052;-77
2023/10/09 00:47:58;;;;;;;2.88;0.70;;;;;;;12.92;77.42;101205.00;5072593;28;20070;-77
2023/10/09 00:50:26;;;;;;;1.52;0.80;;;;;;;12.91;77.65;101188.34;5061101;28;20048;-76
2023/10/09 00:53:01;;;;;;;0.90;0.68;;;;;;;12.91;77.47;101180.47;5075886;28;20052;-79
2023/10/09 00:55:38;;;;;;;2.30;0.88;;;;;;;12.93;77.77;101174.31;5094971;28;20044;-77
2023/10/09 00:58:12;;;;;;;1.10;0.98;;;;;;;12.87;78.07;101173.50;5075542;28;20071;-77
2023/10/09 01:00:49;;;;;;;4.28;1.15;;;;;;;12.90;78.01;101164.72;5076786;28;20051;-78
2023/10/09 01:03:21;;;;;;;1.52;0.80;;;;;;;12.90;78.49;101177.84;5060234;28;20051;-77
2023/10/09 01:05:58;;;;;;;5.23;0.97;;;;;;;12.99;77.59;101190.91;5074311;28;20045;-79
2023/10/09 01:08:43;;;;;;;4.03;1.45;;;;;;;13.02;77.73;101197.88;5061717;28;20863;-77
2023/10/09 01:11:20;;;;;;;3.97;1.10;;;;;;;12.99;78.21;101195.28;5071087;28;20200;-76
2023/10/09 01:14:11;;;;;;;3.70;0.90;;;;;;;13.08;77.73;101210.97;5077793;28;20102;-78
2023/10/09 01:16:37;;;;;;;1.45;0.75;;;;;;;13.05;78.33;101203.13;5077299;28;20040;-78
2023/10/09 01:19:14;;;;;;;1.85;0.73;;;;;;;13.05;78.61;101193.47;5078695;28;20495;-78
2023/10/09 01:21:41;;;;;;;1.20;0.90;;;;;;;13.12;78.68;101181.13;5077954;28;20137;-78
2023/10/09 01:24:08;;;;;;;4.30;1.17;;;;;;;13.19;78.96;101176.66;5076144;28;20123;-80
2023/10/09 01:26:44;;;;;;;0.75;0.75;;;;;;;13.24;79.12;101188.00;5085304;28;20058;-81
2023/10/09 01:29:19;;;;;;;1.90;1.08;;;;;;;13.22;78.99;101177.50;5079877;28;20052;-76
2023/10/09 01:31:54;;;;;;;4.05;1.33;;;;;;;13.18;79.58;101186.31;5076271;28;20475;-79
2023/10/09 01:34:41;;;;;;;2.83;1.00;;;;;;;13.20;79.87;101181.03;5060800;28;20051;-77
2023/10/09 01:37:23;;;;;;;3.03;1.10;;;;;;;13.24;79.10;101181.00;5063341;28;20048;-79
2023/10/09 01:39:58;;;;;;;2.38;0.95;;;;;;;13.21;79.56;101170.50;5076287;28;21387;-78
2023/10/09 01:42:25;;;;;;;3.53;1.23;;;;;;;13.23;79.67;101159.97;5078300;28;20562;-77
2023/10/09 01:44:53;;;;;;;3.00;1.30;;;;;;;13.21;79.63;101138.09;5096948;28;20546;-78
2023/10/09 01:47:21;;;;;;;5.13;1.27;;;;;;;13.19;79.85;101130.22;5077356;28;20124;-76
2023/10/09 01:49:49;;;;;;;1.73;0.95;;;;;;;13.14;80.97;101132.03;5091298;28;20463;-81
2023/10/09 01:52:17;;;;;;;5.30;1.27;;;;;;;13.11;81.14;101132.06;5082243;28;20528;-78
2023/10/09 01:54:51;;;;;;;2.03;0.90;;;;;;;13.08;82.01;101140.84;5060916;28;20043;-77
2023/10/09 01:57:22;;;;;;;3.50;1.65;;;;;;;13.06;82.24;101120.72;5083566;28;20078;-79
2023/10/09 01:59:53;;;;;;;1.85;1.45;;;;;;;12.99;83.25;101119.94;5097171;28;20055;-76
2023/10/09 02:02:26;;;;;;;2.40;1.08;;;;;;;13.00;83.07;101123.47;5073134;28;20527;-77
2023/10/09 02:05:09;;;;;;;1.92;1.10;;;;;;;13.03;83.99;101132.16;5080938;28;20044;-77
2023/10/09 02:07:44;;;;;;;2.15;1.27;;;;;;;13.07;83.35;101127.72;5078770;28;20051;-77
2023/10/09 02:10:25;;;;;;;5.10;1.20;;;;;;;13.03;83.91;101116.38;5057956;28;20578;-79
2023/10/09 02:13:09;;;;;;;3.05;1.65;;;;;;;13.00;84.60;101102.44;5095472;27;20763;-77
2023/10/09 02:15:45;;;;;;;5.32;1.58;;;;;;;12.98;84.98;101096.31;5076328;28;20123;-77
2023/10/09 02:18:18;;;;;;;1.92;1.77;;;;;;;12.98;85.59;101081.41;5073659;28;20044;-80
2023/10/09 02:21:04;;;;;;;1.42;1.30;;;;;;;12.92;86.72;101065.72;5091370;28;20070;-77
2023/10/09 02:23:39;;;;;;;4.53;1.52;;;;;;;12.94;86.53;101057.81;5075866;28;20071;-80
2023/10/09 02:26:17;;;;;;;3.78;1.77;;;;;;;12.97;87.73;101060.41;5077478;28;20044;-80
2023/10/09 02:28:43;;;;;;;5.40;1.92;;;;;;;13.01;88.03;101064.72;5081433;28;20056;-77
2023/10/09 02:31:12;;;;;;;3.30;1.90;;;;;;;13.00;88.26;101055.13;5079649;28;20107;-77
2023/10/09 02:33:39;;;;;;;4.28;1.63;;;;;;;13.00;89.95;101052.50;5079960;28;20036;-77
2023/10/09 02:36:07;;;;;;;4.25;2.35;;;;;;;12.99;90.95;101067.38;5074935;28;20100;-78
2023/10/09 02:38:36;;;;;;;4.75;1.98;;;;;;;12.98;92.58;101065.63;5075764;28;20040;-79
2023/10/09 02:41:20;;;;;;;3.50;1.52;;;;;;;12.93;93.83;101058.69;5075865;28;20032;-77
2023/10/09 02:43:47;;;;;;;6.38;1.98;;;;;;;12.93;94.45;101056.94;5080028;28;20111;-78
2023/10/09 02:46:21;;;;;;;2.28;1.35;;;;;;;12.95;94.20;101046.44;5092451;28;20021;-78
2023/10/09 02:48:51;;;;;;;;;;;;;;;12.82;96.07;101046.56;5078201;28;20054;-77
2023/10/09 02:51:32;;;;;;;4.10;1.92;;;;;;;12.83;96.65;101043.06;5075069;28;19957;-79
2023/10/09 02:54:18;;;;;;;5.28;1.65;;;;;;;12.85;96.23;101045.66;5076322;28;20495;-79
2023/10/09 02:56:54;;;;;;;3.33;2.53;;;;;;;12.77;97.73;101042.25;5081576;28;20562;-79
2023/10/09 02:59:21;;;;;;;6.40;2.45;;;;;;;12.75;98.08;101031.78;5068117;28;20452;-78
2023/10/09 03:01:49;;;;;;;7.72;2.55;;;;;;;12.82;98.40;101030.81;5081060;28;20039;-76
2023/10/09 03:04:16;;;;;;;2.58;2.33;;;;;;;12.85;97.93;101037.78;5083407;28;20451;-78
2023/10/09 03:06:49;;;;;;;4.65;2.08;;;;;;;12.94;98.35;101042.91;5100475;28;20036;-79
2023/10/09 03:09:26;;;;;;;5.07;2.47;;;;;;;12.97;97.98;101034.13;5079305;28;20763;-78
2023/10/09 03:12:01;;;;;;;4.55;2.60;;;;;;;12.94;100.00;101024.53;5076493;28;20048;-78
2023/10/09 03:14:39;;;;;;;3.10;2.35;;;;;;;12.93;99.19;101007.00;5079084;28;20047;-76
2023/10/09 03:17:06;;;;;;;11.75;3.03;;;;;;;13.00;99.32;101000.78;5077003;28;20028;-77
2023/10/09 03:19:37;;;;;;;4.97;2.60;;;;;;;12.98;99.11;100996.44;5083612;28;20064;-79
2023/10/09 03:22:09;;;;;;;3.13;2.35;;;;;;;12.95;100.00;100978.09;5087301;28;20126;-77
2023/10/09 03:24:36;;;;;;;6.28;3.50;;;;;;;12.95;100.00;100967.59;5077086;28;20040;-78
2023/10/09 03:27:03;;;;;;;2.72;2.20;;;;;;;12.90;100.00;100971.13;5082172;28;20040;-76
2023/10/09 03:29:30;;;;;;;6.03;2.83;;;;;;;12.83;100.00;100969.50;5077422;28;20044;-77
2023/10/09 03:31:57;;;;;;;3.47;2.63;;;;;;;12.82;100.00;100969.53;5067778;28;20055;-76
2023/10/09 03:34:24;;;;;;;8.57;2.45;;;;;;;12.80;100.00;100963.41;5083877;28;20044;-78
2023/10/09 03:37:03;;;;;;;5.68;3.10;;;;;;;12.81;100.00;100971.25;5076564;28;20527;-76
2023/10/09 03:39:38;;;;;;;7.20;2.92;;;;;;;12.82;100.00;100980.03;5064766;28;20131;-80
2023/10/09 03:42:05;;;;;;;4.63;2.95;;;;;;;12.86;100.00;100969.44;5075296;28;20048;-77
2023/10/09 03:44:38;;;;;;;7.65;3.35;;;;;;;12.88;100.00;100964.16;5078141;28;20036;-78
2023/10/09 03:47:05;;;;;;;9.10;3.60;;;;;;;12.89;100.00;100966.78;5060368;28;20051;-78
2023/10/09 03:49:31;;;;;;;6.30;3.03;;;;;;;12.91;100.00;100951.00;5073081;28;20051;-80
2023/10/09 03:51:59;;;;;;;8.43;3.10;;;;;;;12.88;100.00;100951.91;5080549;28;20093;-80
2023/10/09 03:54:27;;;;;;;4.85;3.25;;;;;;;12.93;100.00;100956.22;5095248;28;20730;-79
2023/10/09 03:56:54;;;;;;;7.03;3.55;;;;;;;12.92;100.00;100965.88;5081856;28;20046;-82
2023/10/09 03:59:22;;;;;;;6.13;3.30;;;;;;;12.96;100.00;100969.31;5094076;28;20090;-80
2023/10/09 04:01:52;;;;;;;5.85;3.95;;;;;;;12.97;100.00;100979.81;5082470;28;20051;-79
2023/10/09 04:04:22;;;;;;;10.20;4.45;;;;;;;13.01;100.00;100975.38;5080781;28;20491;-78
2023/10/09 04:06:51;;;;;;;7.70;3.90;;;;;;;13.02;100.00;100985.00;5086345;28;20062;-78
2023/10/09 04:09:29;;;;;;;8.27;3.65;;;;;;;13.02;100.00;100980.63;5080429;28;20056;-78
2023/10/09 04:14:49;;;;;;;5.07;3.08;;;;;;;13.08;100.00;100992.81;5082317;28;20059;-78
2023/10/09 04:22:50;;;;;;;11.23;4.95;;;;;;;13.15;100.00;100967.31;5081893;28;20047;-79
2023/10/09 04:25:25;;;;;;;15.82;6.30;;;;;;;13.07;100.00;100963.03;5070772;28;20055;-77
2023/10/09 04:28:09;;;;;;;10.75;7.03;;;;;;;13.01;100.00;100954.34;5094564;28;20028;-79
2023/10/09 04:30:42;;;;;;;18.52;10.02;;;;;;;13.00;100.00;100958.75;5061739;28;20143;-77
2023/10/09 04:33:27;;;;;;;20.95;10.77;;;;;;;13.05;100.00;100970.06;5076587;28;20101;-79
2023/10/09 04:36:21;;;;;;;26.38;10.93;;;;;;;13.11;100.00;100974.34;5076705;28;20051;-78
2023/10/09 04:39:15;;;;;;;23.00;10.60;;;;;;;13.19;100.00;100975.13;5091300;28;20048;-77
2023/10/09 04:41:52;;;;;;;27.25;14.40;;;;;;;13.26;100.00;100975.91;5093397;28;20032;-81
2023/10/09 04:44:19;;;;;;;31.55;14.80;;;;;;;13.31;100.00;100965.31;5095750;28;20032;-77
2023/10/09 04:49:37;;;;;;;28.58;15.55;;;;;;;13.32;100.00;100970.53;5078885;28;20048;-79
2023/10/09 04:52:07;;;;;;;37.35;19.08;;;;;;;13.37;100.00;100970.50;5073783;28;20048;-77
2023/10/09 04:55:00;;;;;;;38.58;17.98;;;;;;;13.45;100.00;100962.50;5079198;28;20058;-79
2023/10/09 04:57:26;;;;;;;39.05;18.00;;;;;;;13.46;100.00;100974.75;5078870;28;20040;-76
2023/10/09 04:59:54;;;;;;;38.50;17.88;;;;;;;13.47;100.00;100974.75;5080717;28;20111;-79
2023/10/09 05:02:23;;;;;;;31.08;17.25;;;;;;;13.51;100.00;100992.19;5076850;28;20724;-78
2023/10/09 05:05:40;;;;;;;31.85;17.15;;;;;;;13.56;100.00;100994.78;5092382;28;20039;-78
2023/10/09 05:07:54;;;;;;;36.47;17.73;;;;;;;13.51;100.00;101004.50;5086157;28;20044;-78
2023/10/09 05:10:25;;;;;;;39.10;17.63;;;;;;;13.45;100.00;100988.81;5076288;28;22120;-78
2023/10/09 05:12:58;;;;;;;38.17;19.55;;;;;;;13.40;100.00;100994.13;5080594;28;20047;-79
2023/10/09 05:15:28;;;;;;;;;;;;;;;13.38;100.00;100986.25;5074990;28;20067;-79
2023/10/09 05:17:56;;;;;;;44.33;20.65;;;;;;;13.37;100.00;100995.03;5079512;28;19924;-80
2023/10/09 05:26:26;;;;;;;50.10;22.73;;;;;;;13.29;100.00;101028.44;5089959;28;20582;-78
2023/10/09 05:28:52;;;;;;;45.60;22.95;;;;;;;13.33;100.00;101040.63;5100842;28;20044;-79
2023/10/09 05:34:01;;;;;;;45.38;22.10;;;;;;;13.37;100.00;101023.09;5084516;28;20075;-78
2023/10/09 05:36:35;;;;;;;41.40;22.00;;;;;;;13.39;100.00;101021.31;5081625;28;20043;-79
2023/10/09 05:42:09;;;;;;;41.30;20.95;;;;;;;13.39;100.00;101003.78;5066078;28;20075;-81
2023/10/09 05:47:35;;;;;;;42.35;21.23;;;;;;;13.43;100.00;100982.69;5081462;28;20078;-79
2023/10/09 06:04:15;;;;;;;49.83;22.30;;;;;;;13.36;100.00;101048.53;5082896;28;19927;-80
2023/10/09 06:06:45;;;;;;;45.30;20.00;;;;;;;13.24;100.00;101022.38;5064458;28;20550;-79
2023/10/09 06:09:49;;;;;;;46.88;21.75;;;;;;;13.21;100.00;101025.91;5083071;28;20171;-81
2023/10/09 06:17:51;;;;;;;51.53;24.00;;;;;;;13.14;100.00;101026.00;5082044;28;20056;-78
2023/10/09 06:21:05;;;;;;;48.63;22.95;;;;;;;13.14;100.00;101036.53;5079327;28;20047;-78
2023/10/09 06:23:57;;;;;;;46.17;21.20;;;;;;;13.19;100.00;101026.81;5089755;28;20059;-79
2023/10/09 06:26:23;;;;;;;48.97;22.88;;;;;;;13.19;100.00;101027.72;5081544;28;20150;-78
2023/10/09 06:29:14;;;;;;;44.00;23.95;;;;;;;13.20;100.00;101028.56;5080236;28;20048;-80
2023/10/09 06:31:58;;;;;;;47.13;22.40;;;;;;;13.24;100.00;101033.78;5079543;28;20055;-76
2023/10/09 06:34:32;;;;;;;;;;;;;;;13.27;100.00;101032.88;5081143;28;20126;-79
2023/10/09 06:37:07;;;;;;;38.50;20.27;;;;;;;13.32;100.00;101038.03;5083132;28;19943;-80
2023/10/09 06:39:50;;;;;;;35.33;20.45;;;;;;;13.34;100.00;101038.91;5086656;28;20371;-79
2023/10/09 06:42:33;;;;;;;38.00;19.25;;;;;;;13.36;100.00;101037.09;5081763;28;20140;-79
2023/10/09 06:45:14;;;;;;;41.30;22.50;;;;;;;13.41;100.00;101043.19;5079055;28;20059;-78
2023/10/09 06:48:07;;;;;;;36.25;20.73;;;;;;;13.45;100.00;101046.66;5077618;28;20709;-77
2023/10/09 06:53:28;;;;;;;39.45;19.80;;;;;;;13.50;100.00;101045.69;5077869;28;20056;-79
2023/10/09 06:56:05;;;;;;;34.50;18.30;;;;;;;13.51;100.00;101038.69;5077302;28;20063;-76
2023/10/09 06:58:41;;;;;;;39.88;18.83;;;;;;;13.54;100.00;101042.13;5087583;28;20036;-78
2023/10/09 07:01:28;;;;;;;37.90;18.63;;;;;;;13.56;100.00;101034.22;5075100;28;20131;-78
2023/10/09 07:04:10;;;;;;;34.55;19.70;;;;;;;13.62;100.00;101057.78;5065464;28;20510;-80
2023/10/09 07:09:20;;;;;;;37.45;19.40;;;;;;;13.69;100.00;101040.16;5073493;28;20051;-78
2023/10/09 07:11:59;;;;;;;34.65;18.50;;;;;;;13.70;100.00;101032.25;5059847;28;20087;-77
2023/10/09 07:17:21;;;;;;;33.63;17.38;;;;;;;13.74;100.00;101027.81;5061777;28;20032;-80
2023/10/09 07:20:13;;;;;;;33.78;17.20;;;;;;;13.75;100.00;101019.00;5066104;28;20047;-79
2023/10/09 07:22:56;;;;;;;36.08;17.70;;;;;;;13.78;100.00;101015.44;5079928;28;20442;-76
2023/10/09 07:25:54;;;;;;;34.33;17.95;;;;;;;13.79;100.00;101018.06;5072460;28;20044;-78
2023/10/09 07:28:36;;;;;;;38.20;20.00;;;;;;;13.80;100.00;101011.91;5080141;28;20047;-79
2023/10/09 07:31:09;;;;;;;40.92;19.70;;;;;;;13.76;100.00;101012.00;5077367;28;20044;-78
2023/10/09 07:36:16;;;;;;;35.30;20.08;;;;;;;13.67;100.00;101021.75;5074557;28;20048;-79
2023/10/09 07:38:44;;;;;;;34.33;18.15;;;;;;;13.70;100.00;101021.72;5059191;28;20040;-79
2023/10/09 07:43:57;;;;;;;;;;;;;;;13.78;100.00;101018.06;5064733;28;20090;-79
2023/10/09 07:46:32;;;;;;;43.05;20.50;;;;;;;13.80;100.00;101008.41;5076568;28;19994;-79
2023/10/09 07:49:08;;;;;;;42.55;19.70;;;;;;;13.83;100.00;101010.97;5072981;28;20044;-81
2023/10/09 07:51:43;;;;;;;36.72;21.30;;;;;;;13.86;100.00;100998.66;5076660;28;20537;-78
2023/10/09 07:54:14;;;;;;;35.88;20.25;;;;;;;13.89;100.00;100995.94;5079492;28;20119;-79
2023/10/09 07:56:43;;;;;;;36.80;18.85;;;;;;;13.94;100.00;100995.03;5063098;28;20047;-80
2023/10/09 07:59:13;;;;;;;42.33;20.70;;;;;;;13.98;100.00;100992.28;5073606;28;20036;-78
2023/10/09 08:01:53;;;;;;;40.03;20.20;;;;;;;14.06;100.00;100981.63;5075837;28;20159;-79
2023/10/09 08:04:37;;;;;;;36.20;18.73;;;;;;;14.10;100.00;100967.50;5087610;28;20428;-80
2023/10/09 08:07:19;;;;;;;30.30;18.50;;;;;;;14.15;100.00;100970.06;5074202;28;20067;-78
2023/10/09 08:10:58;;;;;;;31.38;18.88;;;;;;;14.18;100.00;100972.63;5073162;28;20424;-77
2023/10/09 08:15:25;;;;;;;34.78;16.80;;;;;;;14.25;100.00;100966.38;5070655;28;20059;-78
2023/10/09 08:17:58;;;;;;;29.55;15.65;;;;;;;14.33;100.00;100971.50;5074222;28;20148;-79
2023/10/09 08:20:29;;;;;;;29.48;17.38;;;;;;;14.37;100.00;100970.53;5060720;28;20523;-80
2023/10/09 08:22:56;;;;;;;27.65;15.85;;;;;;;14.44;100.00;100966.00;5078877;28;20043;-80
2023/10/09 08:25:31;;;;;;;32.05;16.65;;;;;;;14.46;100.00;100975.63;5075064;28;20492;-80
2023/10/09 08:31:02;;;;;;;26.65;15.88;;;;;;;14.52;100.00;100962.31;5074713;28;20116;-79
2023/10/09 08:36:22;;;;;;;24.33;14.20;;;;;;;14.67;100.00;100960.31;5068277;28;20339;-79
2023/10/09 08:38:49;;;;;;;23.90;14.30;;;;;;;14.74;100.00;100950.50;5065487;28;20051;-81
2023/10/09 08:41:19;;;;;;;21.30;13.27;;;;;;;14.75;100.00;100963.63;5071958;28;20495;-79
2023/10/09 08:43:55;;;;;;;26.17;15.32;;;;;;;14.77;100.00;100958.31;5077295;28;20040;-79
2023/10/09 08:46:28;;;;;;;24.33;15.05;;;;;;;14.84;100.00;100970.47;5055535;28;20352;-80
2023/10/09 08:49:00;;;;;;;23.73;13.57;;;;;;;14.89;100.00;100969.47;5077035;28;20047;-77
2023/10/09 08:51:29;;;;;;;25.02;16.02;;;;;;;14.97;100.00;100981.63;5070439;28;20054;-79
2023/10/09 08:53:56;;;;;;;24.95;14.45;;;;;;;15.05;100.00;100982.31;5070542;28;20373;-78
2023/10/09 08:56:24;;;;;;;21.88;14.15;;;;;;;15.05;100.00;100983.19;5072408;28;20061;-77
2023/10/09 08:58:57;;;;;;;27.67;13.70;;;;;;;15.04;100.00;100977.94;5077111;28;20685;-80
2023/10/09 09:01:24;;;;;;;21.65;12.80;;;;;;;15.07;100.00;100972.63;5066711;28;20036;-82
2023/10/09 09:03:55;;;;;;;21.13;12.73;;;;;;;15.10;100.00;100980.44;5081677;28;20051;-77
2023/10/09 09:06:23;;;;;;;20.13;12.27;;;;;;;15.15;100.00;100983.00;5080336;28;20043;-78
2023/10/09 09:08:59;;;;;;;17.65;11.65;;;;;;;15.11;100.00;100976.03;5077250;28;20040;-78
2023/10/09 09:11:30;;;;;;;22.13;12.00;;;;;;;15.14;100.00;100968.91;5079107;28;20136;-79
2023/10/09 09:14:04;;;;;;;20.83;11.77;;;;;;;15.21;100.00;100978.44;5081361;28;20453;-78
2023/10/09 09:16:35;;;;;;;16.42;10.57;;;;;;;15.23;100.00;100970.50;5079300;28;20044;-78
2023/10/09 09:19:17;;;;;;;24.25;12.80;;;;;;;15.27;100.00;100964.22;5082012;28;20039;-80
2023/10/09 09:21:59;;;;;;;20.30;10.95;;;;;;;15.32;100.00;100969.41;5076030;28;20902;-80
2023/10/09 09:24:33;;;;;;;19.60;10.25;;;;;;;15.35;100.00;100964.91;5080396;28;20048;-79
2023/10/09 09:27:12;;;;;;;32.90;13.13;;;;;;;15.40;100.00;100962.19;5096258;27;20059;-80
2023/10/09 09:29:38;;;;;;;22.55;12.45;;;;;;;15.39;100.00;100961.28;5064218;28;20066;-80
2023/10/09 09:32:17;;;;;;;17.08;10.20;;;;;;;15.39;100.00;100953.38;5075745;28;20104;-78
2023/10/09 09:34:54;;;;;;;18.85;11.73;;;;;;;15.41;100.00;100969.19;5075336;28;20279;-78
2023/10/09 09:37:29;;;;;;;23.25;12.32;;;;;;;15.37;100.00;100984.22;5048946;28;20048;-78
2023/10/09 09:40:14;;;;;;;20.55;12.90;;;;;;;15.31;100.00;101020.44;5072883;28;20131;-79
2023/10/09 09:42:48;;;;;;;20.60;12.10;;;;;;;15.29;100.00;101033.66;5080971;28;20051;-79
2023/10/09 09:45:16;;;;;;;22.73;12.48;;;;;;;15.23;100.00;101025.88;5066430;28;20047;-79
2023/10/09 09:47:51;;;;;;;17.40;10.95;;;;;;;15.22;100.00;101010.94;5061365;28;20623;-79
2023/10/09 09:50:24;;;;;;;31.38;13.95;;;;;;;15.19;100.00;100998.69;5075045;28;20835;-80
2023/10/09 09:52:56;;;;;;;27.23;13.40;;;;;;;15.08;100.00;100995.41;5078306;28;20036;-79
2023/10/09 09:55:30;;;;;;;28.70;14.93;;;;;;;14.92;100.00;101023.91;5075511;28;20305;-77
2023/10/09 09:57:58;;;;;;;30.08;16.27;;;;;;;14.77;100.00;101025.09;5080116;28;20071;-78
2023/10/09 10:00:30;;;;;;;30.38;15.55;;;;;;;14.68;100.00;101034.03;5080965;28;20054;-77
2023/10/09 10:03:21;;;;;;;27.50;15.10;;;;;;;14.65;100.00;101041.13;5064382;28;20047;-80
2023/10/09 10:05:52;;;;;;;29.85;17.30;;;;;;;14.59;100.00;101036.84;5077485;28;20640;-81
2023/10/09 10:08:21;;;;;;;31.95;18.33;;;;;;;14.56;100.00;101039.50;5074699;28;20549;-79
2023/10/09 10:10:57;;;;;;;33.50;18.08;;;;;;;14.54;100.00;101034.28;5074560;28;20079;-77
2023/10/09 10:13:41;;;;;;;45.75;19.92;;;;;;;14.50;100.00;101024.69;5046479;28;20062;-79
2023/10/09 10:16:19;;;;;;;33.42;18.85;;;;;;;14.53;100.00;101026.41;5078220;28;20043;-78
2023/10/09 10:19:06;;;;;;;33.40;18.77;;;;;;;14.56;100.00;101024.59;5078175;28;20566;-79
2023/10/09 10:21:40;;;;;;;39.78;20.08;;;;;;;14.53;100.00;101021.13;5078467;28;21156;-78
2023/10/09 10:24:29;;;;;;;30.33;19.92;;;;;;;14.52;100.00;101033.47;5057041;28;20048;-80
2023/10/09 10:27:17;;;;;;;34.25;19.58;;;;;;;14.49;100.00;101028.22;5075900;28;20059;-79
2023/10/09 10:29:50;;;;;;;39.08;21.52;;;;;;;14.51;100.00;101017.66;5074554;28;20055;-78
2023/10/09 10:32:20;;;;;;;35.45;19.73;;;;;;;14.48;100.00;101015.09;5067695;28;20055;-78
2023/10/09 10:34:56;;;;;;;33.65;18.05;;;;;;;14.45;100.00;101015.16;5077454;28;20123;-77
2023/10/09 10:37:50;;;;;;;36.78;20.90;;;;;;;14.39;100.00;101017.00;5079406;28;20047;-77
2023/10/09 10:40:39;;;;;;;31.30;18.30;;;;;;;14.39;100.00;101027.56;5079132;28;20040;-79
2023/10/09 10:43:13;;;;;;;32.65;19.63;;;;;;;14.35;100.00;101025.88;5075776;28;20501;-79
2023/10/09 10:45:44;;;;;;;29.10;18.48;;;;;;;14.25;100.00;101016.41;5081161;28;20044;-78
2023/10/09 10:48:22;;;;;;;26.15;17.20;;;;;;;14.28;100.00;101020.75;5077228;28;20028;-79
2023/10/09 10:51:01;;;;;;;31.65;18.20;;;;;;;14.26;100.00;101026.00;5076521;28;20040;-81
2023/10/09 10:53:34;;;;;;;30.92;18.85;;;;;;;14.32;100.00;101023.28;5071918;28;20040;-79
2023/10/09 10:56:17;;;;;;;28.33;18.52;;;;;;;14.30;100.00;101016.31;5074652;28;20117;-79
2023/10/09 10:59:11;;;;;;;27.70;18.48;;;;;;;14.27;100.00;101017.22;5074516;28;20044;-78
2023/10/09 11:04:38;;;;;;;35.15;19.65;;;;;;;14.36;100.00;101008.28;5068856;28;20063;-79
2023/10/09 11:07:12;;;;;;;29.13;20.90;;;;;;;14.40;100.00;101012.59;5076927;28;20040;-79
2023/10/09 11:10:07;;;;;;;37.47;21.70;;;;;;;14.46;100.00;101001.09;5078352;28;20056;-81
2023/10/09 11:13:11;;;;;;;31.95;19.35;;;;;;;14.51;100.00;101010.63;5075286;28;20048;-79
2023/10/09 11:15:45;;;;;;;30.45;18.85;;;;;;;14.56;100.00;101016.69;5076769;28;20611;-79
2023/10/09 11:18:19;;;;;;;32.85;20.30;;;;;;;14.60;100.00;101017.50;5060849;28;20135;-77
2023/10/09 11:23:53;;;;;;;29.70;20.95;;;;;;;14.74;100.00;101016.38;5080844;28;20169;-78
2023/10/09 11:26:25;;;;;;;33.85;20.52;;;;;;;14.74;100.00;101016.38;5072228;28;20048;-78
2023/10/09 11:29:23;;;;;;;29.15;19.85;;;;;;;14.72;100.00;101019.91;5079064;28;20040;-78
2023/10/09 11:32:05;;;;;;;29.00;19.27;;;;;;;14.78;100.00;101020.69;5058493;28;20045;-79
2023/10/09 11:34:37;;;;;;;28.42;18.42;;;;;;;14.80;100.00;101008.34;5081474;28;20044;-78
2023/10/09 11:37:39;;;;;;;31.58;20.40;;;;;;;14.86;100.00;101013.47;5079676;28;20168;-78
2023/10/09 11:40:23;;;;;;;29.98;20.67;;;;;;;14.84;100.00;101012.66;5097648;28;20032;-79
2023/10/09 11:42:50;;;;;;;29.05;19.98;;;;;;;14.84;100.00;101016.16;5089699;28;20044;-82
2023/10/09 11:45:29;;;;;;;29.98;20.02;;;;;;;14.84;100.00;101008.25;5070657;28;20040;-81
2023/10/09 11:47:58;;;;;;;29.02;18.48;;;;;;;14.87;100.00;101017.84;5083228;28;20043;-78
2023/10/09 11:50:53;;;;;;;27.80;18.42;;;;;;;14.88;100.00;101017.81;5075086;28;20422;-79
2023/10/09 11:53:33;;;;;;;28.35;18.50;;;;;;;14.91;100.00;101016.88;5065089;28;20653;-77
2023/10/09 11:56:00;;;;;;;29.88;19.40;;;;;;;14.93;100.00;101014.22;5080422;28;20123;-78
2023/10/09 11:58:27;;;;;;;28.27;20.15;;;;;;;14.92;100.00;101012.50;5095913;28;20036;-78
2023/10/09 12:01:03;;;;;;;24.80;17.50;;;;;;;14.98;100.00;101018.50;5078994;28;20123;-80
2023/10/09 12:03:31;;;;;;;27.73;18.48;;;;;;;15.00;100.00;101021.09;5077901;28;20048;-80
2023/10/09 12:06:04;;;;;;;23.20;16.85;;;;;;;15.03;100.00;101026.28;5079185;28;20041;-80
2023/10/09 12:08:34;;;;;;;24.08;17.13;;;;;;;15.02;100.00;101025.44;5070844;28;20041;-81
2023/10/09 12:11:08;;;;;;;28.27;17.90;;;;;;;15.07;100.00;101012.16;5077630;28;20738;-79
2023/10/09 12:13:35;;;;;;;20.90;15.38;;;;;;;15.11;100.00;101019.09;5077810;28;20058;-79
2023/10/09 12:16:07;;;;;;;22.50;15.10;;;;;;;15.17;100.00;101021.59;5075651;28;20036;-77
2023/10/09 12:18:34;;;;;;;22.87;15.33;;;;;;;15.19;100.00;101021.56;5073869;28;20472;-79
2023/10/09 12:21:04;;;;;;;23.35;15.38;;;;;;;15.19;100.00;101016.31;5076329;28;20052;-79
2023/10/09 12:23:35;;;;;;;20.20;15.25;;;;;;;15.21;100.00;101018.00;5072278;28;20044;-78
2023/10/09 12:26:04;;;;;;;24.33;15.98;;;;;;;15.23;100.00;101023.22;5063522;28;20155;-77
2023/10/09 12:28:32;;;;;;;19.02;14.35;;;;;;;15.21;100.00;101017.13;5070495;28;20040;-80
2023/10/09 12:31:01;;;;;;;24.55;16.90;;;;;;;15.18;100.00;101012.78;5061601;28;20040;-79
2023/10/09 12:33:30;;;;;;;22.88;17.27;;;;;;;15.17;100.00;101024.22;5071975;28;20048;-78
2023/10/09 12:35:59;;;;;;;25.92;16.50;;;;;;;15.17;100.00;101021.59;5069662;28;20048;-80
2023/10/09 12:38:31;;;;;;;24.98;16.05;;;;;;;15.13;100.00;101024.34;5075254;28;20118;-78
2023/10/09 12:41:18;;;;;;;24.88;17.35;;;;;;;15.12;100.00;101033.16;5057949;28;20044;-78
2023/10/09 12:43:44;;;;;;;25.88;16.80;;;;;;;15.08;100.00;101042.03;5077498;28;20036;-79
2023/10/09 12:46:15;;;;;;;25.92;17.70;;;;;;;15.08;100.00;101028.84;5075326;28;20036;-79
2023/10/09 12:48:46;;;;;;;27.70;17.63;;;;;;;15.07;100.00;101035.00;5075733;28;20516;-78
2023/10/09 12:51:16;;;;;;;23.08;17.42;;;;;;;15.12;100.00;101034.03;5056324;28;20042;-81
2023/10/09 12:53:44;;;;;;;31.52;18.13;;;;;;;15.11;100.00;101036.69;5069120;28;20056;-79
2023/10/09 12:56:11;;;;;;;26.42;18.02;;;;;;;15.16;100.00;101025.16;5074585;28;20044;-78
2023/10/09 12:58:40;;;;;;;26.13;17.75;;;;;;;15.25;100.00;101021.41;5059345;28;20054;-79
2023/10/09 13:01:11;;;;;;;23.75;16.98;;;;;;;15.36;100.00;101022.03;5072102;28;20508;-79